sensor_id;sensor_type;location;lat;lon;timestamp;temperature;humidity
2757;DHT22;1386;50.862;6.494;2023-06-14T00:00:53;20.10;76.00
2757;DHT22;1386;50.862;6.494;2023-06-14T00:03:22;20.10;76.30
2757;DHT22;1386;50.862;6.494;2023-06-14T00:05:50;20.00;77.00
2757;DHT22;1386;50.862;6.494;2023-06-14T06:07:47;17.70;99.90
2757;DHT22;1386;50.862;6.494;2023-06-14T06:10:15;17.80;99.90
2757;DHT22;1386;50.862;6.494;2023-06-14T06:12:45;17.90;99.90
2757;DHT22;1386;50.862;6.494;2023-06-14T06:15:13;17.90;99.90
2757;DHT22;1386;50.862;6.494;2023-06-14T06:17:40;18.00;99.90
2757;DHT22;1386;50.862;6.494;2023-06-14T06:20:11;18.10;99.90
2757;DHT22;1386;50.862;6.494;2023-06-14T06:22:38;18.20;99.90
2757;DHT22;1386;50.862;6.494;2023-06-14T06:25:10;18.30;99.90
2757;DHT22;1386;50.862;6.494;2023-06-14T06:27:38;18.50;99.90
2757;DHT22;1386;50.862;6.494;2023-06-14T06:30:07;18.60;99.90
2757;DHT22;1386;50.862;6.494;2023-06-14T06:32:34;18.70;99.90
2757;DHT22;1386;50.862;6.494;2023-06-14T06:35:01;18.80;98.60
2757;DHT22;1386;50.862;6.494;2023-06-14T06:37:28;19.00;98.30
2757;DHT22;1386;50.862;6.494;2023-06-14T06:39:55;19.10;98.30
2757;DHT22;1386;50.862;6.494;2023-06-14T06:42:23;19.20;98.10
2757;DHT22;1386;50.862;6.494;2023-06-14T06:44:50;19.40;95.50
2757;DHT22;1386;50.862;6.494;2023-06-14T06:47:17;19.60;95.90
2757;DHT22;1386;50.862;6.494;2023-06-14T06:49:44;19.70;94.10
2757;DHT22;1386;50.862;6.494;2023-06-14T06:52:11;19.90;94.30
2757;DHT22;1386;50.862;6.494;2023-06-14T06:54:38;20.00;93.80
2757;DHT22;1386;50.862;6.494;2023-06-14T06:57:05;20.20;93.70
2757;DHT22;1386;50.862;6.494;2023-06-14T06:59:34;20.40;92.70
2757;DHT22;1386;50.862;6.494;2023-06-14T07:02:01;20.60;92.20
2757;DHT22;1386;50.862;6.494;2023-06-14T07:04:27;20.80;91.30
2757;DHT22;1386;50.862;6.494;2023-06-14T07:06:54;21.00;90.80
2757;DHT22;1386;50.862;6.494;2023-06-14T07:09:21;21.10;89.50
2757;DHT22;1386;50.862;6.494;2023-06-14T07:11:48;21.30;90.00
2757;DHT22;1386;50.862;6.494;2023-06-14T07:14:15;21.50;86.90
2757;DHT22;1386;50.862;6.494;2023-06-14T07:16:43;21.70;85.30
2757;DHT22;1386;50.862;6.494;2023-06-14T07:19:11;21.70;81.00
2757;DHT22;1386;50.862;6.494;2023-06-14T07:21:39;21.90;81.20
2757;DHT22;1386;50.862;6.494;2023-06-14T07:24:06;22.00;82.50
2757;DHT22;1386;50.862;6.494;2023-06-14T07:26:33;22.20;83.10
2757;DHT22;1386;50.862;6.494;2023-06-14T07:29:01;22.30;81.90
2757;DHT22;1386;50.862;6.494;2023-06-14T07:31:28;22.30;78.90
2757;DHT22;1386;50.862;6.494;2023-06-14T07:33:56;22.40;78.50
2757;DHT22;1386;50.862;6.494;2023-06-14T07:36:23;22.50;78.10
2757;DHT22;1386;50.862;6.494;2023-06-14T07:38:50;22.70;78.10
2757;DHT22;1386;50.862;6.494;2023-06-14T07:41:17;22.70;77.30
2757;DHT22;1386;50.862;6.494;2023-06-14T07:43:44;22.90;79.30
2757;DHT22;1386;50.862;6.494;2023-06-14T07:46:11;23.00;78.20
2757;DHT22;1386;50.862;6.494;2023-06-14T07:48:39;23.00;76.90
2757;DHT22;1386;50.862;6.494;2023-06-14T07:51:07;23.20;75.50
2757;DHT22;1386;50.862;6.494;2023-06-14T07:53:34;23.30;75.20
2757;DHT22;1386;50.862;6.494;2023-06-14T07:56:02;23.30;72.80
2757;DHT22;1386;50.862;6.494;2023-06-14T07:58:29;23.20;71.20
2757;DHT22;1386;50.862;6.494;2023-06-14T08:00:56;23.20;71.30
2757;DHT22;1386;50.862;6.494;2023-06-14T08:03:23;23.40;71.70
2757;DHT22;1386;50.862;6.494;2023-06-14T08:05:51;23.50;72.50
2757;DHT22;1386;50.862;6.494;2023-06-14T08:08:19;23.80;74.50
2757;DHT22;1386;50.862;6.494;2023-06-14T08:10:47;23.80;71.90
2757;DHT22;1386;50.862;6.494;2023-06-14T08:13:14;23.80;69.50
2757;DHT22;1386;50.862;6.494;2023-06-14T08:15:41;24.00;71.00
2757;DHT22;1386;50.862;6.494;2023-06-14T08:18:09;24.00;71.60
2757;DHT22;1386;50.862;6.494;2023-06-14T08:20:36;24.20;70.90
2757;DHT22;1386;50.862;6.494;2023-06-14T08:23:03;24.30;70.70
2757;DHT22;1386;50.862;6.494;2023-06-14T08:25:32;24.40;68.50
2757;DHT22;1386;50.862;6.494;2023-06-14T08:27:59;24.40;68.90
2757;DHT22;1386;50.862;6.494;2023-06-14T08:30:32;24.60;68.70
2757;DHT22;1386;50.862;6.494;2023-06-14T08:33:00;24.70;66.70
2757;DHT22;1386;50.862;6.494;2023-06-14T08:35:28;24.80;66.80
2757;DHT22;1386;50.862;6.494;2023-06-14T08:37:56;24.90;67.50
2757;DHT22;1386;50.862;6.494;2023-06-14T08:40:24;25.10;66.60
2757;DHT22;1386;50.862;6.494;2023-06-14T08:42:54;25.20;66.30
2757;DHT22;1386;50.862;6.494;2023-06-14T08:45:24;25.30;65.50
2757;DHT22;1386;50.862;6.494;2023-06-14T08:47:52;25.50;66.20
2757;DHT22;1386;50.862;6.494;2023-06-14T08:50:24;25.60;64.50
2757;DHT22;1386;50.862;6.494;2023-06-14T08:52:57;25.90;65.60
2757;DHT22;1386;50.862;6.494;2023-06-14T08:55:27;25.90;63.30
2757;DHT22;1386;50.862;6.494;2023-06-14T08:57:58;25.90;62.00
2757;DHT22;1386;50.862;6.494;2023-06-14T09:00:30;26.00;63.10
2757;DHT22;1386;50.862;6.494;2023-06-14T09:02:58;26.20;63.70
2757;DHT22;1386;50.862;6.494;2023-06-14T09:05:27;26.40;63.30
2757;DHT22;1386;50.862;6.494;2023-06-14T09:07:55;26.40;63.10
2757;DHT22;1386;50.862;6.494;2023-06-14T09:10:27;26.60;64.20
2757;DHT22;1386;50.862;6.494;2023-06-14T09:12:56;26.80;62.50
2757;DHT22;1386;50.862;6.494;2023-06-14T09:15:26;26.90;61.60
2757;DHT22;1386;50.862;6.494;2023-06-14T09:17:53;27.00;60.80
2757;DHT22;1386;50.862;6.494;2023-06-14T09:20:21;27.10;60.40
2757;DHT22;1386;50.862;6.494;2023-06-14T09:22:50;27.20;60.70
2757;DHT22;1386;50.862;6.494;2023-06-14T09:25:18;27.40;60.40
2757;DHT22;1386;50.862;6.494;2023-06-14T09:27:47;27.50;59.30
2757;DHT22;1386;50.862;6.494;2023-06-14T09:30:16;27.40;59.10
2757;DHT22;1386;50.862;6.494;2023-06-14T09:32:44;27.30;57.30
2757;DHT22;1386;50.862;6.494;2023-06-14T09:35:11;27.40;57.80
2757;DHT22;1386;50.862;6.494;2023-06-14T09:37:39;27.50;57.50
2757;DHT22;1386;50.862;6.494;2023-06-14T09:40:07;27.50;57.60
2757;DHT22;1386;50.862;6.494;2023-06-14T09:42:35;27.70;58.00
2757;DHT22;1386;50.862;6.494;2023-06-14T09:45:03;27.80;57.20
2757;DHT22;1386;50.862;6.494;2023-06-14T09:47:32;27.90;56.40
2757;DHT22;1386;50.862;6.494;2023-06-14T09:50:00;28.00;56.50
2757;DHT22;1386;50.862;6.494;2023-06-14T09:52:27;27.90;56.00
2757;DHT22;1386;50.862;6.494;2023-06-14T09:54:55;28.10;55.80
2757;DHT22;1386;50.862;6.494;2023-06-14T09:57:23;28.10;55.80
2757;DHT22;1386;50.862;6.494;2023-06-14T09:59:56;28.30;55.00
2757;DHT22;1386;50.862;6.494;2023-06-14T10:02:26;28.40;55.50
2757;DHT22;1386;50.862;6.494;2023-06-14T10:05:00;28.30;53.90
2757;DHT22;1386;50.862;6.494;2023-06-14T10:07:35;28.40;54.20
2757;DHT22;1386;50.862;6.494;2023-06-14T10:10:02;28.40;53.10
2757;DHT22;1386;50.862;6.494;2023-06-14T10:12:32;28.40;53.40
2757;DHT22;1386;50.862;6.494;2023-06-14T10:15:00;28.50;51.90
2757;DHT22;1386;50.862;6.494;2023-06-14T10:17:35;28.50;52.40
2757;DHT22;1386;50.862;6.494;2023-06-14T10:20:21;28.70;51.70
2757;DHT22;1386;50.862;6.494;2023-06-14T10:22:53;28.70;52.50
2757;DHT22;1386;50.862;6.494;2023-06-14T10:25:28;28.80;52.20
2757;DHT22;1386;50.862;6.494;2023-06-14T10:28:16;28.80;53.10
2757;DHT22;1386;50.862;6.494;2023-06-14T10:31:03;28.90;51.60
2757;DHT22;1386;50.862;6.494;2023-06-14T10:33:31;28.80;49.60
2757;DHT22;1386;50.862;6.494;2023-06-14T10:36:10;28.70;50.40
2757;DHT22;1386;50.862;6.494;2023-06-14T10:38:37;28.70;51.20
2757;DHT22;1386;50.862;6.494;2023-06-14T10:41:05;28.90;51.30
2757;DHT22;1386;50.862;6.494;2023-06-14T10:43:33;29.00;52.20
2757;DHT22;1386;50.862;6.494;2023-06-14T10:46:17;29.10;51.80
2757;DHT22;1386;50.862;6.494;2023-06-14T10:48:44;29.10;51.60
2757;DHT22;1386;50.862;6.494;2023-06-14T10:51:20;29.20;51.60
2757;DHT22;1386;50.862;6.494;2023-06-14T10:53:47;29.20;51.30
2757;DHT22;1386;50.862;6.494;2023-06-14T10:56:27;29.30;50.80
2757;DHT22;1386;50.862;6.494;2023-06-14T10:58:54;29.30;52.10
2757;DHT22;1386;50.862;6.494;2023-06-14T11:01:35;29.30;52.60
2757;DHT22;1386;50.862;6.494;2023-06-14T11:04:07;29.30;52.30
2757;DHT22;1386;50.862;6.494;2023-06-14T11:06:45;29.40;53.70
2757;DHT22;1386;50.862;6.494;2023-06-14T11:12:29;29.60;52.30
2757;DHT22;1386;50.862;6.494;2023-06-14T11:14:58;29.50;52.60
2757;DHT22;1386;50.862;6.494;2023-06-14T11:17:26;29.50;53.50
2757;DHT22;1386;50.862;6.494;2023-06-14T11:20:08;29.50;52.70
2757;DHT22;1386;50.862;6.494;2023-06-14T11:22:41;29.50;53.20
2757;DHT22;1386;50.862;6.494;2023-06-14T11:25:09;29.60;53.90
2757;DHT22;1386;50.862;6.494;2023-06-14T11:27:36;29.50;53.00
2757;DHT22;1386;50.862;6.494;2023-06-14T11:30:07;29.20;52.40
2757;DHT22;1386;50.862;6.494;2023-06-14T11:32:35;29.20;53.30
2757;DHT22;1386;50.862;6.494;2023-06-14T11:35:02;29.10;53.00
2757;DHT22;1386;50.862;6.494;2023-06-14T11:37:33;29.00;53.30
2757;DHT22;1386;50.862;6.494;2023-06-14T11:40:03;29.00;53.90
2757;DHT22;1386;50.862;6.494;2023-06-14T11:42:34;28.90;53.90
2757;DHT22;1386;50.862;6.494;2023-06-14T11:45:01;29.00;54.10
2757;DHT22;1386;50.862;6.494;2023-06-14T11:47:31;28.90;53.80
2757;DHT22;1386;50.862;6.494;2023-06-14T11:49:59;29.10;55.10
2757;DHT22;1386;50.862;6.494;2023-06-14T11:52:26;29.10;54.50
2757;DHT22;1386;50.862;6.494;2023-06-14T11:54:53;29.20;53.90
2757;DHT22;1386;50.862;6.494;2023-06-14T11:57:23;29.20;53.50
2757;DHT22;1386;50.862;6.494;2023-06-14T11:59:50;29.10;53.10
2757;DHT22;1386;50.862;6.494;2023-06-14T12:02:19;29.10;53.80
2757;DHT22;1386;50.862;6.494;2023-06-14T12:04:47;29.00;53.50
2757;DHT22;1386;50.862;6.494;2023-06-14T12:07:15;29.10;53.70
2757;DHT22;1386;50.862;6.494;2023-06-14T18:13:10;25.30;56.20
2757;DHT22;1386;50.862;6.494;2023-06-14T18:15:37;25.30;56.70
2757;DHT22;1386;50.862;6.494;2023-06-14T18:18:04;25.30;56.90
2757;DHT22;1386;50.862;6.494;2023-06-14T18:20:32;25.30;56.60
2757;DHT22;1386;50.862;6.494;2023-06-14T18:22:59;25.20;56.90
2757;DHT22;1386;50.862;6.494;2023-06-14T18:25:26;25.20;56.90
2757;DHT22;1386;50.862;6.494;2023-06-14T18:27:53;25.10;57.10
2757;DHT22;1386;50.862;6.494;2023-06-14T18:30:21;25.00;56.90
2757;DHT22;1386;50.862;6.494;2023-06-14T18:32:48;25.00;57.00
2757;DHT22;1386;50.862;6.494;2023-06-14T18:35:15;24.90;56.80
2757;DHT22;1386;50.862;6.494;2023-06-14T18:37:42;24.80;56.80
2757;DHT22;1386;50.862;6.494;2023-06-14T18:40:10;24.80;57.20
2757;DHT22;1386;50.862;6.494;2023-06-14T18:42:38;24.80;57.50
2757;DHT22;1386;50.862;6.494;2023-06-14T18:45:06;24.70;57.90
2757;DHT22;1386;50.862;6.494;2023-06-14T18:47:34;24.70;58.10
2757;DHT22;1386;50.862;6.494;2023-06-14T18:50:01;24.70;58.50
2757;DHT22;1386;50.862;6.494;2023-06-14T18:52:28;24.60;58.30
2757;DHT22;1386;50.862;6.494;2023-06-14T18:54:55;24.60;58.70
2757;DHT22;1386;50.862;6.494;2023-06-14T18:57:22;24.50;58.90
2757;DHT22;1386;50.862;6.494;2023-06-14T18:59:50;24.50;59.20
2757;DHT22;1386;50.862;6.494;2023-06-14T19:02:18;24.50;59.10
2757;DHT22;1386;50.862;6.494;2023-06-14T19:04:46;24.40;58.70
2757;DHT22;1386;50.862;6.494;2023-06-14T19:07:13;24.40;58.70
2757;DHT22;1386;50.862;6.494;2023-06-14T19:09:40;24.40;59.00
2757;DHT22;1386;50.862;6.494;2023-06-14T19:12:07;24.40;59.10
2757;DHT22;1386;50.862;6.494;2023-06-14T19:14:34;24.30;59.50
2757;DHT22;1386;50.862;6.494;2023-06-14T19:17:01;24.20;60.30
2757;DHT22;1386;50.862;6.494;2023-06-14T19:19:28;24.20;60.70
2757;DHT22;1386;50.862;6.494;2023-06-14T19:21:57;24.00;62.30
2757;DHT22;1386;50.862;6.494;2023-06-14T19:24:23;23.90;63.80
2757;DHT22;1386;50.862;6.494;2023-06-14T19:26:50;23.80;65.30
2757;DHT22;1386;50.862;6.494;2023-06-14T19:29:17;23.60;67.50
2757;DHT22;1386;50.862;6.494;2023-06-14T19:31:44;23.50;67.10
2757;DHT22;1386;50.862;6.494;2023-06-14T19:34:11;23.40;66.90
2757;DHT22;1386;50.862;6.494;2023-06-14T19:36:38;23.30;67.30
2757;DHT22;1386;50.862;6.494;2023-06-14T19:39:06;23.10;68.40
2757;DHT22;1386;50.862;6.494;2023-06-14T19:41:33;23.10;68.70
2757;DHT22;1386;50.862;6.494;2023-06-14T19:43:59;22.90;68.70
2757;DHT22;1386;50.862;6.494;2023-06-14T19:46:27;22.80;69.20
2757;DHT22;1386;50.862;6.494;2023-06-14T19:48:53;22.80;69.80
2757;DHT22;1386;50.862;6.494;2023-06-14T19:51:20;22.70;69.40
2757;DHT22;1386;50.862;6.494;2023-06-14T19:53:47;22.70;69.70
2757;DHT22;1386;50.862;6.494;2023-06-14T19:56:15;22.60;70.00
2757;DHT22;1386;50.862;6.494;2023-06-14T19:58:42;22.60;70.50
2757;DHT22;1386;50.862;6.494;2023-06-14T20:01:10;22.60;70.70
2757;DHT22;1386;50.862;6.494;2023-06-14T20:03:37;22.50;71.10
2757;DHT22;1386;50.862;6.494;2023-06-14T20:06:04;22.40;71.10
2757;DHT22;1386;50.862;6.494;2023-06-14T20:08:32;22.40;71.30
2757;DHT22;1386;50.862;6.494;2023-06-14T20:10:59;22.30;71.50
2757;DHT22;1386;50.862;6.494;2023-06-14T20:13:27;22.30;71.70
2757;DHT22;1386;50.862;6.494;2023-06-14T20:15:54;22.20;71.80
2757;DHT22;1386;50.862;6.494;2023-06-14T20:18:21;22.00;71.90
2757;DHT22;1386;50.862;6.494;2023-06-14T20:20:49;22.00;72.00
2757;DHT22;1386;50.862;6.494;2023-06-14T20:23:16;21.90;72.10
2757;DHT22;1386;50.862;6.494;2023-06-14T20:25:43;21.90;71.90
2757;DHT22;1386;50.862;6.494;2023-06-14T20:28:09;21.80;71.70
2757;DHT22;1386;50.862;6.494;2023-06-14T20:30:39;21.80;72.70
2757;DHT22;1386;50.862;6.494;2023-06-14T20:33:07;21.80;71.90
2757;DHT22;1386;50.862;6.494;2023-06-14T20:35:34;21.80;72.10
2757;DHT22;1386;50.862;6.494;2023-06-14T20:38:01;21.70;72.20
2757;DHT22;1386;50.862;6.494;2023-06-14T20:40:27;21.60;72.30
2757;DHT22;1386;50.862;6.494;2023-06-14T20:42:54;21.70;71.70
2757;DHT22;1386;50.862;6.494;2023-06-14T20:45:22;21.70;70.20
2757;DHT22;1386;50.862;6.494;2023-06-14T20:47:52;21.60;70.50
2757;DHT22;1386;50.862;6.494;2023-06-14T20:50:19;21.60;70.70
2757;DHT22;1386;50.862;6.494;2023-06-14T20:52:46;21.50;72.40
2757;DHT22;1386;50.862;6.494;2023-06-14T20:55:13;21.40;72.60
2757;DHT22;1386;50.862;6.494;2023-06-14T20:57:41;21.30;72.70
2757;DHT22;1386;50.862;6.494;2023-06-14T21:00:08;21.20;71.90
2757;DHT22;1386;50.862;6.494;2023-06-14T21:02:36;21.10;71.70
2757;DHT22;1386;50.862;6.494;2023-06-14T21:05:07;21.00;71.00
2757;DHT22;1386;50.862;6.494;2023-06-14T21:07:34;21.00;71.10
2757;DHT22;1386;50.862;6.494;2023-06-14T21:10:01;20.90;71.50
2757;DHT22;1386;50.862;6.494;2023-06-14T21:12:28;20.90;71.50
2757;DHT22;1386;50.862;6.494;2023-06-14T21:14:56;20.80;71.70
2757;DHT22;1386;50.862;6.494;2023-06-14T21:17:22;20.70;71.40
2757;DHT22;1386;50.862;6.494;2023-06-14T21:19:49;20.60;70.60
2757;DHT22;1386;50.862;6.494;2023-06-14T21:22:17;20.50;70.50
2757;DHT22;1386;50.862;6.494;2023-06-14T21:24:44;20.40;71.30
2757;DHT22;1386;50.862;6.494;2023-06-14T21:27:11;20.40;72.50
2757;DHT22;1386;50.862;6.494;2023-06-14T21:29:38;20.30;72.70
2757;DHT22;1386;50.862;6.494;2023-06-14T21:32:05;20.30;73.10
2757;DHT22;1386;50.862;6.494;2023-06-14T21:34:33;20.30;73.00
2757;DHT22;1386;50.862;6.494;2023-06-14T21:37:00;20.30;72.80
2757;DHT22;1386;50.862;6.494;2023-06-14T21:39:30;20.20;72.80
2757;DHT22;1386;50.862;6.494;2023-06-14T21:41:57;20.30;73.50
2757;DHT22;1386;50.862;6.494;2023-06-14T21:44:24;20.20;73.70
2757;DHT22;1386;50.862;6.494;2023-06-14T21:46:51;20.20;73.70
2757;DHT22;1386;50.862;6.494;2023-06-14T21:49:17;20.10;73.80
2757;DHT22;1386;50.862;6.494;2023-06-14T21:51:44;20.20;74.00
2757;DHT22;1386;50.862;6.494;2023-06-14T21:54:11;20.20;74.10
2757;DHT22;1386;50.862;6.494;2023-06-14T21:56:39;20.10;74.30
2757;DHT22;1386;50.862;6.494;2023-06-14T21:59:06;20.10;74.60
2757;DHT22;1386;50.862;6.494;2023-06-14T22:01:33;20.00;74.50
2757;DHT22;1386;50.862;6.494;2023-06-14T22:04:00;20.00;74.50
2757;DHT22;1386;50.862;6.494;2023-06-14T22:06:27;20.00;74.20
2757;DHT22;1386;50.862;6.494;2023-06-14T22:08:57;19.90;74.50
2757;DHT22;1386;50.862;6.494;2023-06-14T22:11:24;19.80;74.90
2757;DHT22;1386;50.862;6.494;2023-06-14T22:14:00;19.80;75.40
2757;DHT22;1386;50.862;6.494;2023-06-14T22:16:28;19.70;75.80
2757;DHT22;1386;50.862;6.494;2023-06-14T22:18:55;19.70;75.60
2757;DHT22;1386;50.862;6.494;2023-06-14T22:21:23;19.60;75.00
2757;DHT22;1386;50.862;6.494;2023-06-14T22:23:50;19.60;75.50
2757;DHT22;1386;50.862;6.494;2023-06-14T22:26:16;19.50;76.00
2757;DHT22;1386;50.862;6.494;2023-06-14T22:28:43;19.50;76.50
2757;DHT22;1386;50.862;6.494;2023-06-14T22:31:12;19.40;77.20
2757;DHT22;1386;50.862;6.494;2023-06-14T22:33:40;19.40;77.70
2757;DHT22;1386;50.862;6.494;2023-06-14T22:36:08;19.30;78.00
2757;DHT22;1386;50.862;6.494;2023-06-14T22:38:37;19.30;78.40
2757;DHT22;1386;50.862;6.494;2023-06-14T22:41:05;19.30;78.50
2757;DHT22;1386;50.862;6.494;2023-06-14T22:43:34;19.30;78.40
2757;DHT22;1386;50.862;6.494;2023-06-14T22:46:03;19.20;78.60
2757;DHT22;1386;50.862;6.494;2023-06-14T22:48:34;19.20;78.80
2757;DHT22;1386;50.862;6.494;2023-06-14T22:51:11;19.10;79.00
2757;DHT22;1386;50.862;6.494;2023-06-14T22:53:38;19.10;79.10
2757;DHT22;1386;50.862;6.494;2023-06-14T22:56:06;19.10;79.60
2757;DHT22;1386;50.862;6.494;2023-06-14T22:58:33;19.10;79.80
2757;DHT22;1386;50.862;6.494;2023-06-14T23:01:01;19.00;80.10
2757;DHT22;1386;50.862;6.494;2023-06-14T23:03:29;19.00;79.80
2757;DHT22;1386;50.862;6.494;2023-06-14T23:05:58;19.00;79.90
2757;DHT22;1386;50.862;6.494;2023-06-14T23:08:28;19.00;79.50
2757;DHT22;1386;50.862;6.494;2023-06-14T23:10:55;19.00;79.50
2757;DHT22;1386;50.862;6.494;2023-06-14T23:16:44;18.90;80.30
2757;DHT22;1386;50.862;6.494;2023-06-14T23:19:13;18.80;80.70
2757;DHT22;1386;50.862;6.494;2023-06-14T23:21:42;18.80;81.20
2757;DHT22;1386;50.862;6.494;2023-06-14T23:24:12;18.70;81.30
2757;DHT22;1386;50.862;6.494;2023-06-14T23:26:39;18.70;81.20
2757;DHT22;1386;50.862;6.494;2023-06-14T23:29:06;18.60;81.40
2757;DHT22;1386;50.862;6.494;2023-06-14T23:31:34;18.50;81.20
2757;DHT22;1386;50.862;6.494;2023-06-14T23:34:00;18.50;81.20
2757;DHT22;1386;50.862;6.494;2023-06-14T23:36:27;18.40;81.40
2757;DHT22;1386;50.862;6.494;2023-06-14T23:38:59;18.40;82.10
2757;DHT22;1386;50.862;6.494;2023-06-14T23:41:29;18.40;82.50
2757;DHT22;1386;50.862;6.494;2023-06-14T23:43:57;18.30;82.50
2757;DHT22;1386;50.862;6.494;2023-06-14T23:46:25;18.30;80.90
2757;DHT22;1386;50.862;6.494;2023-06-14T23:48:53;18.40;81.10
2757;DHT22;1386;50.862;6.494;2023-06-14T23:51:21;18.40;81.90
2757;DHT22;1386;50.862;6.494;2023-06-14T23:53:48;18.40;82.30
2757;DHT22;1386;50.862;6.494;2023-06-14T23:56:19;18.30;82.70
2757;DHT22;1386;50.862;6.494;2023-06-14T23:58:50;18.30;83.20
